Pagina principale
METAR-TAF:

METAR-TAF

Aeroporti :

Homel', Bielorussia

latitudine: 52-31-36N, longitudine: 031-01-06E, altezza: 144 m

Osservazione

Il bollettino è stato emesso 1 ora e 5 minuti fa, alle 17:00 UTC
Vento 10 kt da sud
Temperature 24°C
Umidità 50%
Pressione 1018 hPa
Visibilità 10 km o più
nessuna nube inferiore a 1500 m e nessun cumulonembo

METAR: UMGG 101700Z 17005MPS CAVOK 24/13 Q1018 R10/D NOSIG

Ora: 21:05 (18:05 UTC)

Previsione

Il bollettino è stato emesso 1 ora e 4 minuti fa, alle 17:01 UTC
Previsione valida dal 10 alle 18 UTC al 11 alle 18 UTC
Vento 14 kt da sud
Visibilità 10 km o più
Nubi sparse ad un'altezza di 2500 ft
Temporaneamente
dal 11 alle 07 UTC al 11 alle 16 UTC
Vento 14 kt da sud/sud-ovest con raffiche fino a 23 kt

TAF: UMGG 101701Z 1018/1118 19007MPS 9999 SCT025 TX30/1111Z TN18/1102Z TEMPO 1107/1116 20007G12MPS

Osservazioni e previsioni meteorologiche di più di 4000 aeroporti (messaggi METAR e TAF).

Le stazioni disponibili sono rappresentate dai dischi gialli e rossi sulla carta.

Puntare il mouse per vedere il nome della stazione.

Clicca sopra per visualizzare le osservazioni e previsioni meteorologiche.

Per cambiare la mappa : fare clic sui pulsanti verdi con una croce nera per ingrandire, il pulsante verde con un trattino per diminuire, o sulla freccia verde per le mappe adiacenti.


METAR-TAF: